メインページ
METAR-TAF:

METAR-TAF

空港 :

ベリンハム, ワシントン, アメリカ合衆国

緯度: 48-47-58N, 経度: 122-32-21W, 海抜: 48m

現時点の気象観測

当レポートは26分前の17:53(UTC)に作成
の風 11kt、最大19ktの突風を伴う
気温 13°C
湿度 77%
気圧 1016 hPa
視程: 8.0km
高度2600ftの曇り
煙霧

METAR: KBLI 171753Z 17011G19KT 5SM HZ OVC026 13/09 A3001 RMK AO2 RAE11B31E41 SLP170 P0000 60031 T01330089 10133 20128 53007

時間: 10:19 (18:19 UTC)

予報

当レポートは53分前の17:26(UTC)に作成
予報は17日の 18時(UTC)から 18日の 18時(UTC)まで有効
南/南東の風 12kt、最大22ktの突風を伴う
視程: 8.0km
高度2500ftの千切れ雲あり
高度3000ftの曇り
小雨, 靄
17日の 2000時(UTC)から
南/南東の風 10kt、最大15ktの突風を伴う
視程: 10km
高度2000ftの曇り
近辺でにわか雨
18日の 0000時(UTC)から
の風 7kt
視程: 10km
高度2500ftの曇り
18日の 0500時(UTC)から
変向風 3kt
視程: 10km
高度2500ftの曇り

TAF: KBLI 171726Z 1718/1818 16012G22KT 5SM -RA BR BKN025 OVC030 FM172000 16010G15KT P6SM VCSH OVC020 FM180000 18007KT P6SM OVC025 FM180500 VRB03KT P6SM OVC025

4,000以上の空港の気象観測と天気予報(METAR報とTAF報)

利用可能な観測所は地図上に黄色い丸と赤い丸で示す。

丸の上にカーソルを重ねると観測所名を参照できる。

次にクリックすると気象観測と天気予報を参照できる。

マップの切り替え:黒色「×」印の緑ボタンをクリックして拡大、「-」印の緑ボタンをクリックして縮小、緑色の三角印をクリックして隣りの地図に切り替え


METAR-TAF: